Wednesday, April 1, 2015, 5:15 PM EDT
Back to Local

KMTP, Montauk Airport

Location: Montauk, NY, United States Lat: 41.067
Local Time: 5:15 PM EDT (21:15 GMT) Lon: -71.917
Time Zone: US/Eastern Elev: 6 ft

Show me the last for .
Show Coded

Time T Td Feel RH Dir Speed Gust Alt SLP Vis Weather Sky Remarks
2015-04-01 16:54 47 18 43 31 270° 9 - 30.05 30.05 0 None
2015-04-01 15:54 46 15 39 28 250° 10 16 30.04 30.04 0 None
2015-04-01 14:54 45 16 40 30 260° 10 - 30.05 30.04 0 None
2015-04-01 13:54 44 17 38 33 260° 12 - 30.04 30.03 0 6-hr Min Temp (2pm): 36.0°F
6-hr Max Temp (2pm): 45.0°F
2015-04-01 12:54 43 14 35 30 270° 9 16 30.03 30.03 0 None
2015-04-01 11:54 41 15 36 34 280° 7 - 30.02 30.02 0 None
2015-04-01 10:54 39 15 33 37 330° 9 - 30.02 30.02 0 None
2015-04-01 09:54 38 15 32 38 350° 8 - 30.01 30.01 0 None
2015-04-01 06:54 36 23 28 58 340° 10 - 29.92 29.92 0 None
2015-04-01 04:54 36 27 29 69 340° 9 - 29.84 29.84 0 None
2015-04-01 03:54 37 31 31 78 350° 8 - 29.81 29.81 0 None
2015-04-01 02:54 37 33 30 85 330° 9 - 29.79 29.79 0 None
2015-04-01 00:54 37 35 33 92 300° 5 - 29.77 29.77 0 24-hr Min Temp (1am): 37.0°F
24-hr Max Temp (1am): 46.9°F
2015-03-31 23:54 37 34 34 88 310° 3 - 29.78 29.77 0 None
2015-03-31 22:54 37 34 32 88 320° 6 - 29.78 29.77 0 None
2015-03-31 21:54 37 34 34 88 330° 3 - 29.78 29.78 0 None
2015-03-31 20:54 37 34 33 88 350° 5 - 29.78 29.78 0 None
2015-03-31 19:54 37 34 - 88 - Calm - 29.80 29.80 0 1-hr Precip Total: 0.01"
6-hr Precip Total (8pm): 0.05"
6-hr Min Temp (8pm): 37.0°F
6-hr Max Temp (8pm): 46.9°F
2015-03-31 18:54 38 34 36 85 290° 3 - 29.80 29.79 0 1-hr Precip Total: 0.01"
2015-03-31 17:54 38 33 33 82 260° 7 - 29.80 29.80 0 1-hr Precip Total: 0.03"

Support USWX by starting your Amazon purchase here.